sensor_id;sensor_type;location;lat;lon;timestamp;P1;durP1;ratioP1;P2;durP2;ratioP2
82300;SDS011;71911;48.584;13.460;2023-07-31T14:29:46;24.58;;;6.15;;
82300;SDS011;71911;48.584;13.460;2023-07-31T14:32:13;24.73;;;6.38;;
82300;SDS011;71911;48.584;13.460;2023-07-31T14:34:39;15.63;;;5.97;;
82300;SDS011;71911;48.584;13.460;2023-07-31T14:44:08;0.00;;;0.00;;
82300;SDS011;71911;48.584;13.460;2023-07-31T14:46:35;0.30;;;0.17;;
82300;SDS011;71911;48.584;13.460;2023-07-31T14:49:01;0.08;;;0.08;;
82300;SDS011;71911;48.584;13.460;2023-07-31T14:51:28;0.40;;;0.40;;
82300;SDS011;71911;48.584;13.460;2023-07-31T14:53:54;0.50;;;0.50;;
82300;SDS011;71911;48.584;13.460;2023-07-31T14:56:21;0.40;;;0.40;;
82300;SDS011;71911;48.584;13.460;2023-07-31T14:58:47;0.38;;;0.30;;
82300;SDS011;71911;48.584;13.460;2023-07-31T15:03:37;0.30;;;0.30;;
82300;SDS011;71911;48.584;13.460;2023-07-31T15:06:03;0.22;;;0.22;;
82300;SDS011;71911;48.584;13.460;2023-07-31T15:08:31;0.22;;;0.22;;
82300;SDS011;71911;48.584;13.460;2023-07-31T15:10:58;0.45;;;0.43;;
82300;SDS011;71911;48.584;13.460;2023-07-31T15:13:25;0.00;;;0.00;;
82300;SDS011;71911;48.584;13.460;2023-07-31T15:15:51;0.45;;;0.45;;
82300;SDS011;71911;48.584;13.460;2023-07-31T15:18:18;0.13;;;0.13;;
82300;SDS011;71911;48.584;13.460;2023-07-31T15:20:44;0.60;;;0.52;;
82300;SDS011;71911;48.584;13.460;2023-07-31T15:23:11;0.40;;;0.40;;
82300;SDS011;71911;48.584;13.460;2023-07-31T15:25:38;0.20;;;0.15;;
82300;SDS011;71911;48.584;13.460;2023-07-31T15:28:04;0.00;;;0.00;;
82300;SDS011;71911;48.584;13.460;2023-07-31T15:30:33;0.05;;;0.00;;
82300;SDS011;71911;48.584;13.460;2023-07-31T15:33:00;0.98;;;0.93;;
82300;SDS011;71911;48.584;13.460;2023-07-31T15:35:27;0.10;;;0.10;;
82300;SDS011;71911;48.584;13.460;2023-07-31T15:37:54;0.15;;;0.15;;
82300;SDS011;71911;48.584;13.460;2023-07-31T15:40:20;0.80;;;0.40;;
82300;SDS011;71911;48.584;13.460;2023-07-31T15:42:47;0.00;;;0.00;;
82300;SDS011;71911;48.584;13.460;2023-07-31T15:45:14;0.00;;;0.00;;
82300;SDS011;71911;48.584;13.460;2023-07-31T15:47:40;0.15;;;0.15;;
82300;SDS011;71911;48.584;13.460;2023-07-31T15:50:07;0.35;;;0.32;;
82300;SDS011;71911;48.584;13.460;2023-07-31T15:52:34;0.28;;;0.28;;
82300;SDS011;71911;48.584;13.460;2023-07-31T15:55:00;0.00;;;0.00;;
82300;SDS011;71911;48.584;13.460;2023-07-31T15:57:27;0.10;;;0.10;;
82300;SDS011;71911;48.584;13.460;2023-07-31T15:59:56;0.50;;;0.50;;
82300;SDS011;71911;48.584;13.460;2023-07-31T16:02:23;1.00;;;0.60;;
82300;SDS011;71911;48.584;13.460;2023-07-31T16:04:49;0.13;;;0.13;;
82300;SDS011;71911;48.584;13.460;2023-07-31T16:07:16;0.03;;;0.03;;
82300;SDS011;71911;48.584;13.460;2023-07-31T16:09:42;0.55;;;0.52;;
82300;SDS011;71911;48.584;13.460;2023-07-31T16:12:09;0.10;;;0.10;;
82300;SDS011;71911;48.584;13.460;2023-07-31T16:14:37;0.03;;;0.03;;
82300;SDS011;71911;48.584;13.460;2023-07-31T16:17:04;0.15;;;0.15;;
82300;SDS011;71911;48.584;13.460;2023-07-31T16:19:31;0.10;;;0.10;;
82300;SDS011;71911;48.584;13.460;2023-07-31T16:21:57;0.30;;;0.30;;
82300;SDS011;71911;48.584;13.460;2023-07-31T16:24:24;0.30;;;0.30;;
82300;SDS011;71911;48.584;13.460;2023-07-31T16:26:50;0.17;;;0.17;;
82300;SDS011;71911;48.584;13.460;2023-07-31T16:29:17;0.10;;;0.10;;
82300;SDS011;71911;48.584;13.460;2023-07-31T16:31:44;0.10;;;0.10;;
82300;SDS011;71911;48.584;13.460;2023-07-31T16:34:23;0.68;;;0.55;;
82300;SDS011;71911;48.584;13.460;2023-07-31T16:36:53;0.43;;;0.38;;
82300;SDS011;71911;48.584;13.460;2023-07-31T16:39:23;1.15;;;0.75;;
82300;SDS011;71911;48.584;13.460;2023-07-31T16:41:50;0.32;;;0.32;;
82300;SDS011;71911;48.584;13.460;2023-07-31T16:44:16;0.00;;;0.00;;
82300;SDS011;71911;48.584;13.460;2023-07-31T16:46:43;0.00;;;0.00;;
82300;SDS011;71911;48.584;13.460;2023-07-31T16:49:09;0.40;;;0.40;;
82300;SDS011;71911;48.584;13.460;2023-07-31T16:51:37;2.65;;;0.77;;
82300;SDS011;71911;48.584;13.460;2023-07-31T16:54:04;0.20;;;0.20;;
82300;SDS011;71911;48.584;13.460;2023-07-31T16:56:30;0.00;;;0.00;;
82300;SDS011;71911;48.584;13.460;2023-07-31T16:59:10;0.17;;;0.17;;
82300;SDS011;71911;48.584;13.460;2023-07-31T17:01:36;0.38;;;0.22;;
82300;SDS011;71911;48.584;13.460;2023-07-31T17:04:04;0.10;;;0.10;;
82300;SDS011;71911;48.584;13.460;2023-07-31T17:06:30;0.25;;;0.20;;
82300;SDS011;71911;48.584;13.460;2023-07-31T17:08:57;0.10;;;0.10;;
82300;SDS011;71911;48.584;13.460;2023-07-31T17:11:24;0.10;;;0.10;;
82300;SDS011;71911;48.584;13.460;2023-07-31T17:13:50;0.88;;;0.75;;
82300;SDS011;71911;48.584;13.460;2023-07-31T17:16:17;0.00;;;0.00;;
82300;SDS011;71911;48.584;13.460;2023-07-31T17:18:45;0.88;;;0.47;;
82300;SDS011;71911;48.584;13.460;2023-07-31T17:21:11;0.47;;;0.28;;
82300;SDS011;71911;48.584;13.460;2023-07-31T17:23:38;0.13;;;0.13;;
82300;SDS011;71911;48.584;13.460;2023-07-31T17:26:04;2.20;;;0.98;;
82300;SDS011;71911;48.584;13.460;2023-07-31T17:28:31;0.10;;;0.10;;
82300;SDS011;71911;48.584;13.460;2023-07-31T17:30:58;0.17;;;0.13;;
82300;SDS011;71911;48.584;13.460;2023-07-31T17:33:25;0.68;;;0.52;;
82300;SDS011;71911;48.584;13.460;2023-07-31T17:35:51;0.30;;;0.30;;
82300;SDS011;71911;48.584;13.460;2023-07-31T17:38:18;0.00;;;0.00;;
82300;SDS011;71911;48.584;13.460;2023-07-31T17:40:44;0.52;;;0.22;;
82300;SDS011;71911;48.584;13.460;2023-07-31T17:43:11;0.00;;;0.00;;
82300;SDS011;71911;48.584;13.460;2023-07-31T17:45:38;0.00;;;0.00;;
82300;SDS011;71911;48.584;13.460;2023-07-31T17:48:04;0.10;;;0.10;;
82300;SDS011;71911;48.584;13.460;2023-07-31T17:50:31;0.30;;;0.30;;
82300;SDS011;71911;48.584;13.460;2023-07-31T17:52:58;0.35;;;0.32;;
82300;SDS011;71911;48.584;13.460;2023-07-31T17:55:25;0.05;;;0.05;;
82300;SDS011;71911;48.584;13.460;2023-07-31T17:57:51;0.00;;;0.00;;
82300;SDS011;71911;48.584;13.460;2023-07-31T18:00:19;0.00;;;0.00;;
82300;SDS011;71911;48.584;13.460;2023-07-31T18:02:47;0.05;;;0.05;;
82300;SDS011;71911;48.584;13.460;2023-07-31T18:05:14;1.15;;;1.10;;
82300;SDS011;71911;48.584;13.460;2023-07-31T18:07:41;0.00;;;0.00;;
82300;SDS011;71911;48.584;13.460;2023-07-31T18:10:10;0.03;;;0.00;;
82300;SDS011;71911;48.584;13.460;2023-07-31T18:12:36;0.10;;;0.10;;
82300;SDS011;71911;48.584;13.460;2023-07-31T18:15:03;0.30;;;0.30;;
82300;SDS011;71911;48.584;13.460;2023-07-31T18:17:31;1.02;;;0.35;;
82300;SDS011;71911;48.584;13.460;2023-07-31T18:19:57;0.17;;;0.17;;
82300;SDS011;71911;48.584;13.460;2023-07-31T18:22:24;0.22;;;0.22;;
82300;SDS011;71911;48.584;13.460;2023-07-31T18:24:50;0.38;;;0.38;;
82300;SDS011;71911;48.584;13.460;2023-07-31T18:27:17;0.32;;;0.32;;
82300;SDS011;71911;48.584;13.460;2023-07-31T18:29:44;0.00;;;0.00;;
82300;SDS011;71911;48.584;13.460;2023-07-31T18:32:11;0.30;;;0.30;;
82300;SDS011;71911;48.584;13.460;2023-07-31T18:34:38;0.00;;;0.00;;
82300;SDS011;71911;48.584;13.460;2023-07-31T18:37:05;0.70;;;0.63;;
82300;SDS011;71911;48.584;13.460;2023-07-31T18:39:31;0.00;;;0.00;;
82300;SDS011;71911;48.584;13.460;2023-07-31T18:41:58;0.63;;;0.28;;
82300;SDS011;71911;48.584;13.460;2023-07-31T18:44:24;0.15;;;0.15;;
82300;SDS011;71911;48.584;13.460;2023-07-31T18:46:51;0.00;;;0.00;;
82300;SDS011;71911;48.584;13.460;2023-07-31T18:49:18;0.10;;;0.10;;
82300;SDS011;71911;48.584;13.460;2023-07-31T18:51:44;0.15;;;0.15;;
82300;SDS011;71911;48.584;13.460;2023-07-31T18:54:13;0.30;;;0.22;;
82300;SDS011;71911;48.584;13.460;2023-07-31T18:56:40;0.63;;;0.63;;
82300;SDS011;71911;48.584;13.460;2023-07-31T18:59:07;0.20;;;0.20;;
82300;SDS011;71911;48.584;13.460;2023-07-31T19:01:33;0.00;;;0.00;;
82300;SDS011;71911;48.584;13.460;2023-07-31T19:04:00;0.15;;;0.15;;
82300;SDS011;71911;48.584;13.460;2023-07-31T19:06:27;0.20;;;0.05;;
82300;SDS011;71911;48.584;13.460;2023-07-31T19:08:54;0.03;;;0.00;;
82300;SDS011;71911;48.584;13.460;2023-07-31T19:11:20;0.30;;;0.30;;
82300;SDS011;71911;48.584;13.460;2023-07-31T19:13:58;0.00;;;0.00;;
82300;SDS011;71911;48.584;13.460;2023-07-31T19:16:25;0.00;;;0.00;;
82300;SDS011;71911;48.584;13.460;2023-07-31T19:18:52;0.20;;;0.20;;
82300;SDS011;71911;48.584;13.460;2023-07-31T19:21:19;0.00;;;0.00;;
82300;SDS011;71911;48.584;13.460;2023-07-31T19:23:45;0.30;;;0.30;;
82300;SDS011;71911;48.584;13.460;2023-07-31T19:26:12;0.00;;;0.00;;
82300;SDS011;71911;48.584;13.460;2023-07-31T19:28:40;0.03;;;0.03;;
82300;SDS011;71911;48.584;13.460;2023-07-31T19:31:06;0.00;;;0.00;;
82300;SDS011;71911;48.584;13.460;2023-07-31T19:33:33;0.00;;;0.00;;
82300;SDS011;71911;48.584;13.460;2023-07-31T19:35:59;0.60;;;0.60;;
82300;SDS011;71911;48.584;13.460;2023-07-31T19:38:26;0.13;;;0.13;;
82300;SDS011;71911;48.584;13.460;2023-07-31T19:40:53;0.00;;;0.00;;
82300;SDS011;71911;48.584;13.460;2023-07-31T19:43:19;0.00;;;0.00;;
82300;SDS011;71911;48.584;13.460;2023-07-31T19:45:46;0.00;;;0.00;;
82300;SDS011;71911;48.584;13.460;2023-07-31T19:48:13;0.00;;;0.00;;
82300;SDS011;71911;48.584;13.460;2023-07-31T19:50:40;1.35;;;0.43;;
82300;SDS011;71911;48.584;13.460;2023-07-31T19:53:07;0.38;;;0.20;;
82300;SDS011;71911;48.584;13.460;2023-07-31T19:55:34;0.10;;;0.03;;
82300;SDS011;71911;48.584;13.460;2023-07-31T19:58:00;0.00;;;0.00;;
82300;SDS011;71911;48.584;13.460;2023-07-31T20:00:27;0.00;;;0.00;;
82300;SDS011;71911;48.584;13.460;2023-07-31T20:02:53;0.28;;;0.28;;
82300;SDS011;71911;48.584;13.460;2023-07-31T20:05:20;0.00;;;0.00;;
82300;SDS011;71911;48.584;13.460;2023-07-31T20:07:46;0.00;;;0.00;;
82300;SDS011;71911;48.584;13.460;2023-07-31T20:10:15;0.00;;;0.00;;
82300;SDS011;71911;48.584;13.460;2023-07-31T20:12:41;0.00;;;0.00;;
82300;SDS011;71911;48.584;13.460;2023-07-31T20:15:17;1.45;;;0.38;;
82300;SDS011;71911;48.584;13.460;2023-07-31T20:17:47;0.00;;;0.00;;
82300;SDS011;71911;48.584;13.460;2023-07-31T20:20:14;0.10;;;0.10;;
82300;SDS011;71911;48.584;13.460;2023-07-31T20:22:41;0.08;;;0.08;;
82300;SDS011;71911;48.584;13.460;2023-07-31T20:25:08;0.03;;;0.03;;
82300;SDS011;71911;48.584;13.460;2023-07-31T20:27:35;0.00;;;0.00;;
82300;SDS011;71911;48.584;13.460;2023-07-31T20:30:01;0.00;;;0.00;;
82300;SDS011;71911;48.584;13.460;2023-07-31T20:32:28;0.60;;;0.60;;
82300;SDS011;71911;48.584;13.460;2023-07-31T20:34:55;0.00;;;0.00;;
82300;SDS011;71911;48.584;13.460;2023-07-31T20:37:21;0.00;;;0.00;;
82300;SDS011;71911;48.584;13.460;2023-07-31T20:39:48;0.00;;;0.00;;
82300;SDS011;71911;48.584;13.460;2023-07-31T20:42:14;0.00;;;0.00;;
82300;SDS011;71911;48.584;13.460;2023-07-31T20:44:43;0.17;;;0.17;;
82300;SDS011;71911;48.584;13.460;2023-07-31T20:47:10;0.55;;;0.55;;
82300;SDS011;71911;48.584;13.460;2023-07-31T20:49:36;0.00;;;0.00;;
82300;SDS011;71911;48.584;13.460;2023-07-31T20:52:03;0.10;;;0.08;;
82300;SDS011;71911;48.584;13.460;2023-07-31T20:54:30;0.00;;;0.00;;
82300;SDS011;71911;48.584;13.460;2023-07-31T20:56:57;1.23;;;1.20;;
82300;SDS011;71911;48.584;13.460;2023-07-31T20:59:23;0.00;;;0.00;;
82300;SDS011;71911;48.584;13.460;2023-07-31T21:01:50;0.00;;;0.00;;
82300;SDS011;71911;48.584;13.460;2023-07-31T21:04:17;0.00;;;0.00;;
82300;SDS011;71911;48.584;13.460;2023-07-31T21:06:43;0.05;;;0.05;;
82300;SDS011;71911;48.584;13.460;2023-07-31T21:09:10;0.35;;;0.35;;
82300;SDS011;71911;48.584;13.460;2023-07-31T21:11:36;0.00;;;0.00;;
82300;SDS011;71911;48.584;13.460;2023-07-31T21:14:03;0.00;;;0.00;;
82300;SDS011;71911;48.584;13.460;2023-07-31T21:16:30;0.00;;;0.00;;
82300;SDS011;71911;48.584;13.460;2023-07-31T21:18:56;0.00;;;0.00;;
82300;SDS011;71911;48.584;13.460;2023-07-31T21:21:24;0.00;;;0.00;;
82300;SDS011;71911;48.584;13.460;2023-07-31T21:23:51;0.10;;;0.10;;
82300;SDS011;71911;48.584;13.460;2023-07-31T21:26:17;0.00;;;0.00;;
82300;SDS011;71911;48.584;13.460;2023-07-31T21:28:44;0.00;;;0.00;;
82300;SDS011;71911;48.584;13.460;2023-07-31T21:31:11;0.00;;;0.00;;
82300;SDS011;71911;48.584;13.460;2023-07-31T21:33:38;0.00;;;0.00;;
82300;SDS011;71911;48.584;13.460;2023-07-31T21:36:05;0.10;;;0.10;;
82300;SDS011;71911;48.584;13.460;2023-07-31T21:38:32;0.08;;;0.08;;
82300;SDS011;71911;48.584;13.460;2023-07-31T21:40:58;0.25;;;0.13;;
82300;SDS011;71911;48.584;13.460;2023-07-31T21:43:25;0.00;;;0.00;;
82300;SDS011;71911;48.584;13.460;2023-07-31T21:45:52;0.00;;;0.00;;
82300;SDS011;71911;48.584;13.460;2023-07-31T21:48:19;0.00;;;0.00;;
82300;SDS011;71911;48.584;13.460;2023-07-31T21:50:45;0.00;;;0.00;;
82300;SDS011;71911;48.584;13.460;2023-07-31T21:53:12;0.00;;;0.00;;
82300;SDS011;71911;48.584;13.460;2023-07-31T21:55:38;0.00;;;0.00;;
82300;SDS011;71911;48.584;13.460;2023-07-31T21:58:05;0.00;;;0.00;;
82300;SDS011;71911;48.584;13.460;2023-07-31T22:00:31;0.00;;;0.00;;
82300;SDS011;71911;48.584;13.460;2023-07-31T22:02:58;0.13;;;0.13;;
82300;SDS011;71911;48.584;13.460;2023-07-31T22:05:25;0.85;;;0.15;;
82300;SDS011;71911;48.584;13.460;2023-07-31T22:07:51;0.00;;;0.00;;
82300;SDS011;71911;48.584;13.460;2023-07-31T22:10:18;0.00;;;0.00;;
82300;SDS011;71911;48.584;13.460;2023-07-31T22:12:44;0.45;;;0.45;;
82300;SDS011;71911;48.584;13.460;2023-07-31T22:15:11;0.00;;;0.00;;
82300;SDS011;71911;48.584;13.460;2023-07-31T22:17:40;0.03;;;0.03;;
82300;SDS011;71911;48.584;13.460;2023-07-31T22:20:06;0.00;;;0.00;;
82300;SDS011;71911;48.584;13.460;2023-07-31T22:22:34;0.00;;;0.00;;
82300;SDS011;71911;48.584;13.460;2023-07-31T22:25:01;0.00;;;0.00;;
82300;SDS011;71911;48.584;13.460;2023-07-31T22:27:27;0.00;;;0.00;;
82300;SDS011;71911;48.584;13.460;2023-07-31T22:29:54;0.52;;;0.22;;
82300;SDS011;71911;48.584;13.460;2023-07-31T22:32:20;0.00;;;0.00;;
82300;SDS011;71911;48.584;13.460;2023-07-31T22:34:47;0.00;;;0.00;;
82300;SDS011;71911;48.584;13.460;2023-07-31T22:37:13;0.00;;;0.00;;
82300;SDS011;71911;48.584;13.460;2023-07-31T22:39:40;0.00;;;0.00;;
82300;SDS011;71911;48.584;13.460;2023-07-31T22:42:07;0.28;;;0.28;;
82300;SDS011;71911;48.584;13.460;2023-07-31T22:44:33;0.00;;;0.00;;
82300;SDS011;71911;48.584;13.460;2023-07-31T22:47:00;0.10;;;0.10;;
82300;SDS011;71911;48.584;13.460;2023-07-31T22:49:26;0.00;;;0.00;;
82300;SDS011;71911;48.584;13.460;2023-07-31T22:51:53;1.13;;;1.08;;
82300;SDS011;71911;48.584;13.460;2023-07-31T22:54:20;0.00;;;0.00;;
82300;SDS011;71911;48.584;13.460;2023-07-31T22:56:46;0.08;;;0.08;;
82300;SDS011;71911;48.584;13.460;2023-07-31T22:59:16;0.00;;;0.00;;
82300;SDS011;71911;48.584;13.460;2023-07-31T23:01:43;0.00;;;0.00;;
82300;SDS011;71911;48.584;13.460;2023-07-31T23:04:09;1.45;;;0.73;;
82300;SDS011;71911;48.584;13.460;2023-07-31T23:06:37;0.15;;;0.15;;
82300;SDS011;71911;48.584;13.460;2023-07-31T23:09:04;0.10;;;0.10;;
82300;SDS011;71911;48.584;13.460;2023-07-31T23:11:30;0.10;;;0.10;;
82300;SDS011;71911;48.584;13.460;2023-07-31T23:13:57;0.00;;;0.00;;
82300;SDS011;71911;48.584;13.460;2023-07-31T23:16:23;0.00;;;0.00;;
82300;SDS011;71911;48.584;13.460;2023-07-31T23:18:50;0.00;;;0.00;;
82300;SDS011;71911;48.584;13.460;2023-07-31T23:21:17;0.00;;;0.00;;
82300;SDS011;71911;48.584;13.460;2023-07-31T23:23:43;0.10;;;0.10;;
82300;SDS011;71911;48.584;13.460;2023-07-31T23:26:10;0.13;;;0.13;;
82300;SDS011;71911;48.584;13.460;2023-07-31T23:28:37;0.88;;;0.80;;
82300;SDS011;71911;48.584;13.460;2023-07-31T23:31:03;0.00;;;0.00;;
82300;SDS011;71911;48.584;13.460;2023-07-31T23:33:30;0.00;;;0.00;;
82300;SDS011;71911;48.584;13.460;2023-07-31T23:35:57;0.00;;;0.00;;
82300;SDS011;71911;48.584;13.460;2023-07-31T23:38:24;0.10;;;0.10;;
82300;SDS011;71911;48.584;13.460;2023-07-31T23:40:51;0.10;;;0.10;;
82300;SDS011;71911;48.584;13.460;2023-07-31T23:43:17;0.13;;;0.13;;
82300;SDS011;71911;48.584;13.460;2023-07-31T23:45:44;0.00;;;0.00;;
82300;SDS011;71911;48.584;13.460;2023-07-31T23:48:11;0.00;;;0.00;;
82300;SDS011;71911;48.584;13.460;2023-07-31T23:50:37;0.00;;;0.00;;
82300;SDS011;71911;48.584;13.460;2023-07-31T23:53:04;0.00;;;0.00;;
82300;SDS011;71911;48.584;13.460;2023-07-31T23:55:30;0.00;;;0.00;;
82300;SDS011;71911;48.584;13.460;2023-07-31T23:57:58;0.00;;;0.00;;
